Time;durP1;ratioP1;P1;durP2;ratioP2;P2;SDS_P1;SDS_P2;PMS_P1;PMS_P2;Temp;Humidity;BMP_temperature;BMP_pressure;BME280_temperature;BME280_humidity;BME280_pressure;Samples;Min_cycle;Max_cycle;Signal;HPM_P1;HPM_P2
2024/02/22 00:06:22;;;;;;;33.80;16.60;;;;;;;9.73;100.00;99695.47;678241;1262;140028;-79
2024/02/22 00:21:26;;;;;;;40.40;18.90;;;;;;;9.70;100.00;99685.50;677976;1259;139867;-80
2024/02/22 00:36:39;;;;;;;35.60;17.50;;;;;;;9.62;100.00;99672.95;679390;1263;140196;-79
2024/02/22 00:52:00;;;;;;;36.10;18.50;;;;;;;9.46;100.00;99654.15;679325;1259;140863;-79
2024/02/22 01:07:03;;;;;;;41.00;19.30;;;;;;;9.41;100.00;99634.77;681508;1263;207225;-80
2024/02/22 01:22:08;;;;;;;38.90;17.50;;;;;;;9.35;100.00;99633.04;677723;1263;139477;-79
2024/02/22 01:37:12;;;;;;;34.20;17.50;;;;;;;9.31;100.00;99603.40;680204;1264;141363;-79
2024/02/22 01:52:15;;;;;;;35.50;16.80;;;;;;;9.32;100.00;99570.35;677609;1265;139555;-79
2024/02/22 02:07:20;;;;;;;38.20;18.30;;;;;;;9.35;99.97;99552.55;675973;1264;141008;-79
2024/02/22 02:22:48;;;;;;;47.70;19.70;;;;;;;9.08;99.87;99530.99;679914;1265;141032;-79
2024/02/22 02:37:52;;;;;;;33.40;15.20;;;;;;;8.84;99.79;99504.77;680149;1263;140217;-79
2024/02/22 02:52:56;;;;;;;36.20;16.50;;;;;;;8.66;100.00;99477.34;677028;1264;139595;-79
2024/02/22 03:08:03;;;;;;;42.60;19.80;;;;;;;8.56;100.00;99455.83;675784;1264;139564;-79
2024/02/22 03:23:07;;;;;;;41.70;21.00;;;;;;;8.29;100.00;99436.11;673089;1275;140421;-79
2024/02/22 03:38:10;;;;;;;46.40;21.10;;;;;;;8.09;100.00;99414.30;680923;1263;139438;-79
2024/02/22 03:53:15;;;;;;;37.10;18.90;;;;;;;7.82;100.00;99395.86;678304;1265;139409;-79
2024/02/22 04:08:19;;;;;;;43.90;21.90;;;;;;;7.70;100.00;99387.81;679044;1265;139790;-79
2024/02/22 04:23:22;;;;;;;44.70;19.30;;;;;;;7.56;100.00;99365.96;678808;1264;139387;-79
2024/02/22 04:38:26;;;;;;;43.00;18.70;;;;;;;7.48;100.00;99358.13;676855;1265;139708;-79
2024/02/22 04:53:29;;;;;;;46.10;20.40;;;;;;;7.50;100.00;99344.33;673053;1270;140527;-79
2024/02/22 05:08:36;;;;;;;78.00;32.60;;;;;;;7.31;100.00;99326.54;678644;1266;138932;-79
2024/02/22 05:23:40;;;;;;;62.90;23.00;;;;;;;7.26;100.00;99304.77;679268;1263;139542;-79
2024/02/22 05:38:44;;;;;;;37.10;18.90;;;;;;;7.23;100.00;99286.95;680602;1266;139208;-79
2024/02/22 05:53:48;;;;;;;48.40;20.20;;;;;;;7.18;100.00;99282.36;677321;1268;139685;-79
2024/02/22 06:08:52;;;;;;;39.90;19.40;;;;;;;7.24;100.00;99270.84;677799;1263;139741;-80
2024/02/22 06:23:56;;;;;;;50.50;23.00;;;;;;;7.29;100.00;99249.86;681483;1266;139923;-79
2024/02/22 06:39:00;;;;;;;52.00;22.90;;;;;;;7.44;100.00;99218.39;677005;1265;139891;-78
2024/02/22 06:54:04;;;;;;;42.20;19.60;;;;;;;7.53;100.00;99205.10;678265;1264;139359;-80
2024/02/22 07:09:07;;;;;;;44.50;20.90;;;;;;;7.74;100.00;99193.44;680537;1264;141367;-80
2024/02/22 07:24:22;;;;;;;33.20;17.60;;;;;;;8.13;100.00;99184.22;675904;1263;140128;-80
2024/02/22 07:39:28;;;;;;;47.30;19.50;;;;;;;8.34;100.00;99182.92;681557;1267;140663;-80
2024/02/22 07:54:32;;;;;;;53.70;27.60;;;;;;;8.62;100.00;99169.58;674227;1265;144766;-79
2024/02/22 08:09:36;;;;;;;31.10;15.70;;;;;;;9.42;98.37;99158.58;678066;1269;138775;-81
2024/02/22 08:24:40;;;;;;;37.40;16.60;;;;;;;10.72;95.97;99152.27;673125;1264;140751;-80
2024/02/22 08:39:45;;;;;;;85.40;26.80;;;;;;;9.70;94.28;99124.52;676731;1264;140781;-79
2024/02/22 08:54:52;;;;;;;316.90;81.10;;;;;;;9.61;94.57;99093.81;677972;1264;140582;-80
2024/02/22 09:09:55;;;;;;;34.70;14.60;;;;;;;10.66;93.41;99073.14;678286;1263;140478;-77
2024/02/22 09:24:59;;;;;;;79.20;27.80;;;;;;;13.45;82.58;99056.16;677905;1261;140673;-80
2024/02/22 09:40:05;;;;;;;70.20;29.70;;;;;;;12.95;79.27;99012.04;677763;1266;140443;-78
2024/02/22 09:55:12;;;;;;;24.60;12.80;;;;;;;12.09;78.26;98990.33;680493;1264;139931;-80
2024/02/22 10:10:27;;;;;;;32.30;14.80;;;;;;;11.90;78.99;98961.48;680243;1260;140999;-80
2024/02/22 10:25:34;;;;;;;45.00;22.50;;;;;;;12.75;79.89;98944.48;676734;1260;140281;-80
2024/02/22 10:40:43;;;;;;;24.80;11.90;;;;;;;14.62;76.73;98915.66;677590;1264;139315;-81
2024/02/22 10:55:49;;;;;;;16.50;8.50;;;;;;;15.33;71.84;98896.94;677516;1260;140700;-81
2024/02/22 11:11:06;;;;;;;26.50;17.90;;;;;;;15.19;68.27;98868.02;674121;1265;140163;-79
2024/02/22 11:26:11;;;;;;;14.60;8.20;;;;;;;14.13;68.24;98843.80;675813;1263;139317;-77
2024/02/22 11:41:15;;;;;;;22.40;11.00;;;;;;;13.84;68.48;98821.38;679521;1264;140431;-78
2024/02/22 11:56:19;;;;;;;37.40;18.40;;;;;;;13.26;69.30;98793.89;678470;1259;140399;-79
2024/02/22 12:11:25;;;;;;;54.00;28.60;;;;;;;12.87;70.68;98776.65;678351;1265;140481;-79
2024/02/22 12:26:29;;;;;;;39.20;16.80;;;;;;;12.81;72.20;98747.20;674798;1260;140599;-81
2024/02/22 12:41:33;;;;;;;25.90;12.30;;;;;;;12.87;72.60;98730.30;678716;1264;142867;-78
2024/02/22 12:56:38;;;;;;;37.30;14.70;;;;;;;12.87;73.44;98707.01;678408;1262;159059;-79
2024/02/22 13:11:42;;;;;;;53.40;21.90;;;;;;;12.90;73.74;98679.13;680570;1262;140866;-80
2024/02/22 13:26:46;;;;;;;24.10;12.90;;;;;;;12.75;74.99;98654.67;680215;1263;140383;-79
2024/02/22 13:41:50;;;;;;;16.20;7.10;;;;;;;12.22;77.44;98640.94;681612;1263;140324;-79
2024/02/22 13:56:56;;;;;;;17.50;10.70;;;;;;;12.00;80.31;98624.75;680584;1275;140539;-79
2024/02/22 14:12:01;;;;;;;21.20;10.40;;;;;;;11.75;85.08;98597.80;681589;1263;140317;-79
2024/02/22 14:27:07;;;;;;;21.20;11.20;;;;;;;11.58;88.95;98580.55;680827;1264;139518;-80
2024/02/22 14:42:27;;;;;;;23.30;12.60;;;;;;;11.49;91.31;98564.31;680324;1264;140034;-80
2024/02/22 14:57:32;;;;;;;19.60;10.50;;;;;;;11.23;95.73;98543.19;680970;1275;139256;-81
2024/02/22 15:12:37;;;;;;;18.80;10.60;;;;;;;11.19;98.09;98526.66;678262;1262;140465;-82
2024/02/22 15:27:42;;;;;;;14.30;8.80;;;;;;;11.17;98.38;98506.73;681174;1260;139385;-82
2024/02/22 15:42:49;;;;;;;14.10;8.40;;;;;;;11.12;99.42;98491.41;680044;1262;139484;-80
2024/02/22 15:57:53;;;;;;;24.80;13.00;;;;;;;10.93;100.00;98478.45;681762;1265;139965;-79
2024/02/22 16:12:58;;;;;;;17.80;10.00;;;;;;;10.87;100.00;98472.76;680066;1259;140636;-80
2024/02/22 16:28:02;;;;;;;16.90;10.10;;;;;;;10.85;100.00;98459.36;676823;1265;139507;-80
2024/02/22 16:43:07;;;;;;;23.90;16.70;;;;;;;10.64;100.00;98455.86;677810;1264;139609;-80
2024/02/22 16:58:10;;;;;;;27.30;14.90;;;;;;;10.66;100.00;98442.97;678335;1264;139443;-80
2024/02/22 17:13:14;;;;;;;27.50;15.40;;;;;;;10.59;100.00;98426.83;681396;1264;140717;-79
2024/02/22 17:28:18;;;;;;;40.60;25.10;;;;;;;10.55;100.00;98406.16;681050;1265;139823;-81
2024/02/22 17:43:22;;;;;;;31.80;18.90;;;;;;;10.63;100.00;98387.66;680308;1264;140204;-80
2024/02/22 17:58:25;;;;;;;30.30;18.70;;;;;;;10.50;100.00;98374.91;679762;1264;139835;-81
2024/02/22 18:13:28;;;;;;;62.50;30.70;;;;;;;10.54;100.00;98359.52;680004;1260;141029;-80
2024/02/22 18:28:33;;;;;;;35.40;20.20;;;;;;;10.49;100.00;98355.79;680394;1275;139853;-79
2024/02/22 18:43:36;;;;;;;44.30;22.80;;;;;;;10.39;100.00;98332.93;680732;1263;140755;-80
2024/02/22 18:58:40;;;;;;;52.40;23.40;;;;;;;10.41;100.00;98309.61;679757;1265;141181;-80
2024/02/22 19:13:46;;;;;;;44.30;22.40;;;;;;;10.46;100.00;98289.64;678308;1269;141169;-80
2024/02/22 19:28:49;;;;;;;31.80;18.70;;;;;;;10.45;100.00;98270.91;680855;1264;140295;-79
2024/02/22 19:43:53;;;;;;;43.80;23.90;;;;;;;10.51;100.00;98247.23;680911;1264;139542;-79
2024/02/22 19:58:59;;;;;;;37.50;18.40;;;;;;;10.65;100.00;98236.95;679650;1265;140773;-79
2024/02/22 20:14:05;;;;;;;43.70;22.50;;;;;;;10.65;100.00;98221.05;678802;1265;139892;-80
2024/02/22 20:29:11;;;;;;;38.90;19.60;;;;;;;10.61;99.71;98213.87;676468;1265;140643;-79
2024/02/22 20:44:15;;;;;;;33.90;18.10;;;;;;;10.83;98.31;98207.84;676736;1265;139725;-79
2024/02/22 20:59:20;;;;;;;30.20;17.80;;;;;;;10.64;98.73;98183.09;674508;1264;139705;-79
2024/02/22 21:14:23;;;;;;;29.90;15.10;;;;;;;10.52;99.09;98163.08;677502;1276;139978;-79
2024/02/22 21:29:27;;;;;;;25.40;15.80;;;;;;;10.57;98.22;98136.42;680732;1275;139930;-77
2024/02/22 21:44:31;;;;;;;28.40;16.60;;;;;;;10.65;97.37;98142.84;673882;1266;139350;-79
2024/02/22 21:59:35;;;;;;;35.40;18.50;;;;;;;10.76;96.67;98138.13;677211;1263;140158;-79
2024/02/22 22:14:38;;;;;;;46.20;21.90;;;;;;;10.78;96.19;98131.36;677969;1265;140425;-81
2024/02/22 22:29:41;;;;;;;22.90;13.60;;;;;;;10.92;94.40;98120.95;673019;1263;139152;-78
2024/02/22 22:44:46;;;;;;;27.10;14.70;;;;;;;10.97;93.18;98105.88;676004;1262;140164;-79
2024/02/22 22:59:51;;;;;;;26.20;14.40;;;;;;;11.08;91.66;98089.94;674339;1265;140413;-79
2024/02/22 23:14:58;;;;;;;28.70;14.50;;;;;;;10.92;91.83;98080.70;678403;1264;140151;-79
2024/02/22 23:30:01;;;;;;;24.90;14.60;;;;;;;11.03;91.16;98071.77;675912;1263;140277;-79
2024/02/22 23:45:05;;;;;;;28.80;16.50;;;;;;;10.99;90.67;98057.30;678977;1263;140250;-80
